Time;durP1;ratioP1;P1;durP2;ratioP2;P2;SDS_P1;SDS_P2;PMS_P1;PMS_P2;Temp;Humidity;BMP_temperature;BMP_pressure;BME280_temperature;BME280_humidity;BME280_pressure;Samples;Min_cycle;Max_cycle;Signal;HPM_P1;HPM_P2
2022/10/23 00:01:28;;;;;;;;;;;10.50;99.90;;;;;;5058130;28;19919;-77
2022/10/23 00:03:58;;;;;;;;;;;10.60;99.90;;;;;;5048832;28;19912;-77
2022/10/23 00:06:23;;;;;;;;;;;10.50;99.90;;;;;;5059862;28;20259;-77
2022/10/23 00:08:49;;;;;;;;;;;10.50;99.90;;;;;;5055114;28;19963;-76
2022/10/23 00:11:15;;;;;;;;;;;10.50;99.90;;;;;;5055773;28;19917;-77
2022/10/23 00:13:41;;;;;;;;;;;10.40;99.90;;;;;;5058619;28;20003;-76
2022/10/23 00:16:07;;;;;;;;;;;10.40;99.90;;;;;;5060121;28;19999;-77
2022/10/23 00:18:33;;;;;;;;;;;10.40;99.90;;;;;;5055175;28;19915;-77
2022/10/23 00:20:58;;;;;;;;;;;10.40;99.90;;;;;;5054419;28;19909;-76
2022/10/23 00:23:24;;;;;;;;;;;10.40;99.90;;;;;;5053359;28;20352;-76
2022/10/23 00:25:49;;;;;;;;;;;10.40;99.90;;;;;;5058861;28;19913;-76
2022/10/23 00:28:15;;;;;;;;;;;10.40;99.90;;;;;;5053094;28;20388;-77
2022/10/23 00:30:41;;;;;;;;;;;10.40;99.90;;;;;;5049545;28;87527;-77
2022/10/23 00:33:07;;;;;;;;;;;10.40;99.90;;;;;;5043860;28;19908;-76
2022/10/23 00:35:32;;;;;;;;;;;10.30;99.90;;;;;;5059108;28;19905;-78
2022/10/23 00:37:57;;;;;;;;;;;10.40;99.90;;;;;;5055461;28;19909;-76
2022/10/23 00:40:23;;;;;;;;;;;10.40;99.90;;;;;;5058339;28;19911;-77
2022/10/23 00:42:48;;;;;;;;;;;10.50;99.90;;;;;;5062646;28;19970;-76
2022/10/23 00:45:19;;;;;;;;;;;10.40;99.90;;;;;;5061237;28;19912;-76
2022/10/23 00:47:45;;;;;;;;;;;10.50;99.90;;;;;;5055848;28;19917;-76
2022/10/23 00:50:11;;;;;;;;;;;10.50;99.90;;;;;;5058477;28;19991;-76
2022/10/23 00:52:40;;;;;;;;;;;10.40;99.90;;;;;;5059532;28;19908;-76
2022/10/23 00:55:05;;;;;;;;;;;10.40;99.90;;;;;;5059752;28;19915;-78
2022/10/23 00:57:31;;;;;;;;;;;10.30;99.90;;;;;;5067137;28;19921;-76
2022/10/23 00:59:56;;;;;;;;;;;10.30;99.90;;;;;;5054381;28;19912;-76
2022/10/23 01:02:22;;;;;;;;;;;10.20;99.90;;;;;;5052095;28;20294;-76
2022/10/23 01:04:47;;;;;;;;;;;10.20;99.90;;;;;;5064599;28;19904;-76
2022/10/23 01:07:27;;;;;;;;;;;10.20;99.90;;;;;;5062318;28;19912;-76
2022/10/23 01:10:02;;;;;;;;;;;10.10;99.90;;;;;;5064604;28;19913;-76
2022/10/23 01:12:33;;;;;;;;;;;10.10;99.90;;;;;;5054119;28;19959;-76
2022/10/23 01:15:06;;;;;;;;;;;10.00;99.90;;;;;;5063983;28;19908;-76
2022/10/23 01:17:36;;;;;;;;;;;10.00;99.90;;;;;;5053486;28;20003;-77
2022/10/23 01:20:32;;;;;;;;;;;10.00;99.90;;;;;;5059985;28;19944;-76
2022/10/23 01:23:16;;;;;;;;;;;10.00;99.90;;;;;;4980511;28;19945;-77
2022/10/23 01:25:53;;;;;;;;;;;10.00;99.90;;;;;;5068119;28;20453;-76
2022/10/23 01:28:39;;;;;;;;;;;10.00;99.90;;;;;;5059561;28;19913;-78
2022/10/23 01:31:07;;;;;;;;;;;10.00;99.90;;;;;;5064073;28;20285;-76
2022/10/23 01:33:39;;;;;;;;;;;10.10;99.90;;;;;;5060273;28;19940;-76
2022/10/23 01:36:08;;;;;;;;;;;10.20;99.90;;;;;;5069268;28;20279;-76
2022/10/23 01:38:36;;;;;;;;;;;10.20;99.90;;;;;;5067376;28;19932;-79
2022/10/23 01:41:14;;;;;;;;;;;10.20;99.90;;;;;;5056705;28;19982;-77
2022/10/23 01:44:03;;;;;;;;;;;10.20;99.90;;;;;;5057213;28;19954;-76
2022/10/23 01:46:29;;;;;;;;;;;10.20;99.90;;;;;;5045898;28;19960;-76
2022/10/23 01:48:55;;;;;;;;;;;10.20;99.90;;;;;;5056630;28;19978;-77
2022/10/23 01:51:22;;;;;;;;;;;10.10;99.90;;;;;;5060270;28;19954;-77
2022/10/23 01:53:48;;;;;;;;;;;10.10;99.90;;;;;;5074525;28;19922;-77
2022/10/23 01:56:19;;;;;;;;;;;10.10;99.90;;;;;;5067068;28;20344;-77
2022/10/23 01:58:45;;;;;;;;;;;10.10;99.90;;;;;;5058330;28;20022;-77
2022/10/23 02:01:12;;;;;;;;;;;10.10;99.90;;;;;;5064761;28;20404;-77
2022/10/23 02:03:39;;;;;;;;;;;10.10;99.90;;;;;;5060889;28;19982;-76
2022/10/23 02:06:04;;;;;;;;;;;10.10;99.90;;;;;;5062482;28;19909;-76
2022/10/23 02:08:30;;;;;;;;;;;10.10;99.90;;;;;;5057268;28;19940;-76
2022/10/23 02:11:07;;;;;;;;;;;10.10;99.90;;;;;;5057427;28;19912;-77
2022/10/23 02:13:38;;;;;;;;;;;10.10;99.90;;;;;;5054244;28;20007;-76
2022/10/23 02:16:23;;;;;;;;;;;10.10;99.90;;;;;;5062084;28;20007;-76
2022/10/23 02:18:51;;;;;;;;;;;10.10;99.90;;;;;;5057986;28;19915;-76
2022/10/23 02:21:20;;;;;;;;;;;10.00;99.90;;;;;;5061103;28;19916;-76
2022/10/23 02:24:08;;;;;;;;;;;10.00;99.90;;;;;;5055151;28;20307;-76
2022/10/23 02:26:36;;;;;;;;;;;10.00;99.90;;;;;;5052658;28;19908;-76
2022/10/23 02:29:08;;;;;;;;;;;10.00;99.90;;;;;;5061520;28;20100;-76
2022/10/23 02:31:33;;;;;;;;;;;9.90;99.90;;;;;;5064078;28;19961;-77
2022/10/23 02:33:59;;;;;;;;;;;10.00;99.90;;;;;;5062236;28;20003;-76
2022/10/23 02:36:24;;;;;;;;;;;10.00;99.90;;;;;;5057144;28;20376;-77
2022/10/23 02:38:49;;;;;;;;;;;10.00;99.90;;;;;;5052026;28;20361;-76
2022/10/23 02:41:23;;;;;;;;;;;10.00;99.90;;;;;;5060308;28;19995;-77
2022/10/23 02:44:01;;;;;;;;;;;10.00;99.90;;;;;;5058387;28;20443;-76
2022/10/23 02:46:26;;;;;;;;;;;10.10;99.90;;;;;;5056506;28;19913;-77
2022/10/23 02:49:10;;;;;;;;;;;10.00;99.90;;;;;;5062015;28;19927;-77
2022/10/23 02:51:43;;;;;;;;;;;10.10;99.90;;;;;;5061680;28;19962;-77
2022/10/23 02:54:17;;;;;;;;;;;10.30;99.90;;;;;;5060903;28;19912;-76
2022/10/23 02:56:52;;;;;;;;;;;10.30;99.90;;;;;;5062011;28;20010;-77
2022/10/23 02:59:23;;;;;;;;;;;10.30;99.90;;;;;;5059246;28;19908;-76
2022/10/23 03:01:51;;;;;;;;;;;10.30;99.90;;;;;;5059862;28;19998;-76
2022/10/23 03:04:18;;;;;;;;;;;10.20;99.90;;;;;;5054493;28;19909;-77
2022/10/23 03:06:44;;;;;;;;;;;10.20;99.90;;;;;;5059802;28;20375;-77
2022/10/23 03:09:10;;;;;;;;;;;10.10;99.90;;;;;;5065510;28;19912;-77
2022/10/23 03:11:35;;;;;;;;;;;10.00;99.90;;;;;;5059838;28;20272;-77
2022/10/23 03:14:00;;;;;;;;;;;10.00;99.90;;;;;;5066008;28;20272;-76
2022/10/23 03:16:26;;;;;;;;;;;9.90;99.90;;;;;;5053964;28;19920;-76
2022/10/23 03:18:51;;;;;;;;;;;9.80;99.90;;;;;;5057013;28;19913;-79
2022/10/23 03:21:17;;;;;;;;;;;9.70;99.90;;;;;;5058546;28;20021;-78
2022/10/23 03:23:42;;;;;;;;;;;9.60;99.90;;;;;;5055512;28;19932;-77
2022/10/23 03:26:08;;;;;;;;;;;9.60;99.90;;;;;;5060702;28;19913;-77
2022/10/23 03:28:34;;;;;;;;;;;9.50;99.90;;;;;;5062929;28;19956;-76
2022/10/23 03:31:01;;;;;;;;;;;9.50;99.90;;;;;;5058362;28;19916;-77
2022/10/23 03:33:26;;;;;;;;;;;9.40;99.90;;;;;;5065166;28;19924;-76
2022/10/23 03:35:52;;;;;;;;;;;9.30;99.90;;;;;;5058262;28;19915;-77
2022/10/23 03:38:17;;;;;;;;;;;9.40;99.90;;;;;;5059750;28;20360;-77
2022/10/23 03:40:42;;;;;;;;;;;9.30;99.90;;;;;;5059228;28;19904;-78
2022/10/23 03:43:08;;;;;;;;;;;9.30;99.90;;;;;;5055599;28;19966;-77
2022/10/23 03:45:33;;;;;;;;;;;9.30;99.90;;;;;;5064706;28;19912;-77
2022/10/23 03:47:59;;;;;;;;;;;9.20;99.90;;;;;;5062338;28;19920;-78
2022/10/23 03:50:24;;;;;;;;;;;9.30;99.90;;;;;;5067155;28;20349;-78
2022/10/23 03:52:49;;;;;;;;;;;9.20;99.90;;;;;;5067035;28;19908;-77
2022/10/23 03:55:15;;;;;;;;;;;9.10;99.90;;;;;;5073234;28;19904;-76
2022/10/23 03:57:41;;;;;;;;;;;9.10;99.90;;;;;;5067122;28;19912;-77
2022/10/23 04:00:07;;;;;;;;;;;9.10;99.90;;;;;;5060063;28;19930;-77
2022/10/23 04:02:32;;;;;;;;;;;9.10;99.90;;;;;;5064959;28;19916;-77
2022/10/23 04:04:58;;;;;;;;;;;9.20;99.90;;;;;;5061793;28;19911;-76
2022/10/23 04:07:23;;;;;;;;;;;9.20;99.90;;;;;;5062105;28;19958;-76
2022/10/23 04:09:49;;;;;;;;;;;9.10;99.90;;;;;;5063119;28;20329;-76
2022/10/23 04:12:14;;;;;;;;;;;9.10;99.90;;;;;;5066632;28;20328;-79
2022/10/23 04:14:39;;;;;;;;;;;9.10;99.90;;;;;;5062721;28;20341;-77
2022/10/23 04:17:05;;;;;;;;;;;9.10;99.90;;;;;;5055683;28;20015;-77
2022/10/23 04:19:30;;;;;;;;;;;9.00;99.90;;;;;;5068392;28;20352;-78
2022/10/23 04:21:56;;;;;;;;;;;9.00;99.90;;;;;;5052022;28;19915;-77
2022/10/23 04:24:22;;;;;;;;;;;9.00;99.90;;;;;;5053791;28;20397;-77
2022/10/23 04:26:47;;;;;;;;;;;9.10;99.90;;;;;;5053563;28;19927;-77
2022/10/23 04:29:13;;;;;;;;;;;9.10;99.90;;;;;;5061413;28;19920;-73
2022/10/23 04:31:38;;;;;;;;;;;9.10;99.90;;;;;;5061715;28;20563;-74
2022/10/23 04:34:04;;;;;;;;;;;9.00;99.90;;;;;;5058677;28;19926;-73
2022/10/23 04:36:29;;;;;;;;;;;9.00;99.90;;;;;;5066374;28;19908;-74
2022/10/23 04:38:55;;;;;;;;;;;9.00;99.90;;;;;;5046013;28;19913;-73
2022/10/23 04:41:20;;;;;;;;;;;8.90;99.90;;;;;;5067227;28;19917;-74
2022/10/23 04:43:46;;;;;;;;;;;9.00;99.90;;;;;;5064889;28;19916;-73
2022/10/23 04:46:11;;;;;;;;;;;9.00;99.90;;;;;;5038267;28;19912;-75
2022/10/23 04:48:36;;;;;;;;;;;9.00;99.90;;;;;;5046557;28;19916;-75
2022/10/23 04:51:03;;;;;;;;;;;9.00;99.90;;;;;;5045591;28;19912;-73
2022/10/23 04:53:29;;;;;;;;;;;9.00;99.90;;;;;;5053444;28;20411;-73
2022/10/23 04:55:55;;;;;;;;;;;9.00;99.90;;;;;;5041467;28;20003;-77
2022/10/23 04:58:21;;;;;;;;;;;8.90;99.90;;;;;;5065075;28;19939;-72
2022/10/23 05:00:48;;;;;;;;;;;8.90;99.90;;;;;;5062437;28;19947;-72
2022/10/23 05:03:14;;;;;;;;;;;8.90;99.90;;;;;;5035788;28;19908;-73
2022/10/23 05:05:39;;;;;;;;;;;8.80;99.90;;;;;;5063906;28;19908;-76
2022/10/23 05:08:05;;;;;;;;;;;8.90;99.90;;;;;;5072403;28;19912;-74
2022/10/23 05:10:31;;;;;;;;;;;8.90;99.90;;;;;;5063339;28;19916;-73
2022/10/23 05:12:56;;;;;;;;;;;8.80;99.90;;;;;;5067435;28;19912;-73
2022/10/23 05:15:22;;;;;;;;;;;8.80;99.90;;;;;;5057728;28;19963;-74
2022/10/23 05:17:49;;;;;;;;;;;8.80;99.90;;;;;;5056678;28;19913;-73
2022/10/23 05:20:17;;;;;;;;;;;8.80;99.90;;;;;;5042265;28;19909;-74
2022/10/23 05:22:43;;;;;;;;;;;8.70;99.90;;;;;;5054557;28;20245;-74
2022/10/23 05:25:09;;;;;;;;;;;8.70;99.90;;;;;;5049490;28;19987;-73
2022/10/23 05:27:34;;;;;;;;;;;8.60;99.90;;;;;;5048587;28;19928;-73
2022/10/23 05:30:01;;;;;;;;;;;8.60;99.90;;;;;;5068755;28;20368;-73
2022/10/23 05:32:28;;;;;;;;;;;8.60;99.90;;;;;;5062317;28;19961;-71
2022/10/23 05:34:54;;;;;;;;;;;8.60;99.90;;;;;;5067156;28;19915;-71
2022/10/23 05:37:20;;;;;;;;;;;8.60;99.90;;;;;;5065736;28;19909;-71
2022/10/23 05:39:45;;;;;;;;;;;8.60;99.90;;;;;;5053850;28;19909;-76
2022/10/23 05:42:10;;;;;;;;;;;8.70;99.90;;;;;;5054830;28;20011;-75
2022/10/23 05:44:36;;;;;;;;;;;8.60;99.90;;;;;;5053902;28;19913;-71
2022/10/23 05:47:01;;;;;;;;;;;8.60;99.90;;;;;;5051361;28;19916;-75
2022/10/23 05:49:27;;;;;;;;;;;8.70;99.90;;;;;;5052481;28;19924;-74
2022/10/23 05:51:52;;;;;;;;;;;8.70;99.90;;;;;;5063292;28;19916;-73
2022/10/23 05:54:17;;;;;;;;;;;8.80;99.90;;;;;;5053730;28;20280;-71
2022/10/23 05:56:43;;;;;;;;;;;8.80;99.90;;;;;;5056845;28;19962;-72
2022/10/23 05:59:09;;;;;;;;;;;8.90;99.90;;;;;;5058549;28;19916;-71
2022/10/23 06:01:34;;;;;;;;;;;8.90;99.90;;;;;;5058283;28;19913;-71
2022/10/23 06:04:01;;;;;;;;;;;9.00;99.90;;;;;;5053072;28;19971;-72
2022/10/23 06:06:26;;;;;;;;;;;9.00;99.90;;;;;;5036726;28;19904;-72
2022/10/23 06:08:52;;;;;;;;;;;9.10;99.90;;;;;;5066566;28;20370;-72
2022/10/23 06:11:18;;;;;;;;;;;9.10;99.90;;;;;;5053904;28;19908;-71
2022/10/23 06:13:44;;;;;;;;;;;9.10;99.90;;;;;;5053581;28;19912;-71
2022/10/23 06:16:23;;;;;;;;;;;9.10;99.90;;;;;;5059901;28;19954;-73
2022/10/23 06:18:48;;;;;;;;;;;9.10;99.90;;;;;;5070389;28;20050;-71
2022/10/23 06:21:14;;;;;;;;;;;9.10;99.90;;;;;;5059901;28;20413;-72
2022/10/23 06:23:40;;;;;;;;;;;9.10;99.90;;;;;;5073881;28;19991;-72
2022/10/23 06:26:07;;;;;;;;;;;9.10;99.90;;;;;;5059498;28;19944;-71
2022/10/23 06:28:32;;;;;;;;;;;9.10;99.90;;;;;;5054372;28;20414;-71
2022/10/23 06:30:58;;;;;;;;;;;9.10;99.90;;;;;;5061668;28;19920;-74
2022/10/23 06:33:23;;;;;;;;;;;9.10;99.90;;;;;;5059398;28;19963;-74
2022/10/23 06:35:48;;;;;;;;;;;9.10;99.90;;;;;;5054475;28;19919;-72
2022/10/23 06:38:14;;;;;;;;;;;9.10;99.90;;;;;;5069681;28;19915;-71
2022/10/23 06:40:40;;;;;;;;;;;9.20;99.90;;;;;;5060547;28;19912;-71
2022/10/23 06:43:07;;;;;;;;;;;9.20;99.90;;;;;;5052435;28;19983;-72
2022/10/23 06:45:33;;;;;;;;;;;9.30;99.90;;;;;;5053518;28;19912;-72
2022/10/23 06:47:58;;;;;;;;;;;9.30;99.90;;;;;;5056588;28;19936;-72
2022/10/23 06:50:24;;;;;;;;;;;9.40;99.90;;;;;;5043696;28;19905;-72
2022/10/23 06:52:50;;;;;;;;;;;9.40;99.90;;;;;;5071433;28;19913;-72
2022/10/23 06:55:15;;;;;;;;;;;9.50;99.90;;;;;;5060341;28;19992;-77
2022/10/23 06:57:41;;;;;;;;;;;9.60;99.90;;;;;;5034869;28;19908;-71
2022/10/23 07:00:07;;;;;;;;;;;9.60;99.90;;;;;;5066211;28;20003;-71
2022/10/23 07:02:32;;;;;;;;;;;9.60;99.90;;;;;;5056619;28;20034;-71
2022/10/23 07:04:58;;;;;;;;;;;9.70;99.90;;;;;;5057165;28;20275;-71
2022/10/23 07:07:23;;;;;;;;;;;9.80;99.90;;;;;;5053879;28;19959;-72
2022/10/23 07:09:48;;;;;;;;;;;9.90;99.90;;;;;;5053332;28;19904;-72
2022/10/23 07:12:14;;;;;;;;;;;10.00;99.90;;;;;;5051631;28;19912;-76
2022/10/23 07:14:39;;;;;;;;;;;9.90;99.90;;;;;;5066539;28;20352;-71
2022/10/23 07:17:05;;;;;;;;;;;10.10;99.90;;;;;;5056343;28;19916;-72
2022/10/23 07:19:30;;;;;;;;;;;10.10;99.90;;;;;;5053298;28;19913;-72
2022/10/23 07:21:56;;;;;;;;;;;10.10;99.90;;;;;;5072100;28;19904;-73
2022/10/23 07:24:21;;;;;;;;;;;10.10;99.90;;;;;;5069622;28;19908;-72
2022/10/23 07:26:46;;;;;;;;;;;10.20;99.90;;;;;;5061043;28;20262;-72
2022/10/23 07:29:12;;;;;;;;;;;10.20;99.90;;;;;;5056485;28;20353;-72
2022/10/23 07:31:37;;;;;;;;;;;10.30;99.90;;;;;;5050612;28;20281;-72
2022/10/23 07:34:03;;;;;;;;;;;10.40;99.90;;;;;;5060519;28;19954;-71
2022/10/23 07:36:28;;;;;;;;;;;10.40;99.90;;;;;;5060581;28;19912;-72
2022/10/23 07:38:54;;;;;;;;;;;10.50;99.90;;;;;;5071116;28;19905;-71
2022/10/23 07:41:19;;;;;;;;;;;10.50;99.90;;;;;;5054689;28;20242;-71
2022/10/23 07:43:45;;;;;;;;;;;10.60;99.90;;;;;;5060920;28;20353;-73
2022/10/23 07:46:10;;;;;;;;;;;10.70;99.90;;;;;;5051745;28;20253;-74
2022/10/23 07:48:36;;;;;;;;;;;10.80;99.90;;;;;;5056646;28;19920;-71
2022/10/23 07:51:07;;;;;;;;;;;10.90;99.90;;;;;;5069420;28;19915;-73
2022/10/23 07:53:33;;;;;;;;;;;10.90;99.90;;;;;;5061158;28;20379;-72
2022/10/23 07:55:59;;;;;;;;;;;11.10;99.90;;;;;;5062333;28;19936;-72
2022/10/23 07:58:25;;;;;;;;;;;11.20;99.90;;;;;;5062747;28;20427;-73
2022/10/23 08:00:57;;;;;;;;;;;11.30;99.90;;;;;;5062936;28;20003;-71
2022/10/23 08:03:40;;;;;;;;;;;11.50;99.90;;;;;;5055522;28;19909;-71
2022/10/23 08:06:06;;;;;;;;;;;11.50;99.90;;;;;;5059151;28;19909;-72
2022/10/23 08:08:31;;;;;;;;;;;11.50;99.90;;;;;;5053681;28;20339;-73
2022/10/23 08:10:57;;;;;;;;;;;11.60;99.90;;;;;;5060838;28;19908;-71
2022/10/23 08:13:22;;;;;;;;;;;11.70;99.90;;;;;;5047953;28;19916;-71
2022/10/23 08:15:49;;;;;;;;;;;11.80;99.90;;;;;;5057216;28;19909;-71
2022/10/23 08:18:14;;;;;;;;;;;12.00;99.90;;;;;;5063539;28;20372;-72
2022/10/23 08:20:44;;;;;;;;;;;12.10;99.90;;;;;;5052134;28;19912;-71
2022/10/23 08:23:11;;;;;;;;;;;12.20;99.90;;;;;;5052379;28;19911;-71
2022/10/23 08:25:37;;;;;;;;;;;12.40;99.90;;;;;;5059783;28;19916;-72
2022/10/23 08:28:02;;;;;;;;;;;12.40;99.90;;;;;;5056611;28;19912;-71
2022/10/23 08:30:27;;;;;;;;;;;12.40;99.90;;;;;;5047676;28;19982;-73
2022/10/23 08:32:53;;;;;;;;;;;12.60;99.90;;;;;;5068910;28;20415;-72
2022/10/23 08:35:18;;;;;;;;;;;12.80;99.90;;;;;;5062770;28;19932;-71
2022/10/23 08:37:44;;;;;;;;;;;12.80;99.90;;;;;;5055771;28;20331;-71
2022/10/23 08:40:14;;;;;;;;;;;12.70;99.80;;;;;;5061002;28;20003;-71
2022/10/23 08:42:40;;;;;;;;;;;12.80;99.70;;;;;;5037354;28;19909;-71
2022/10/23 08:45:10;;;;;;;;;;;12.80;99.30;;;;;;5069244;28;19904;-71
2022/10/23 08:47:44;;;;;;;;;;;12.80;99.10;;;;;;5068176;28;20426;-71
2022/10/23 08:50:12;;;;;;;;;;;12.80;98.70;;;;;;5064112;28;20343;-71
2022/10/23 08:52:40;;;;;;;;;;;12.80;98.70;;;;;;5065219;28;19909;-71
2022/10/23 08:55:05;;;;;;;;;;;12.90;98.70;;;;;;5068469;28;19959;-71
2022/10/23 08:57:36;;;;;;;;;;;12.90;98.50;;;;;;5062944;28;20325;-71
2022/10/23 09:00:07;;;;;;;;;;;13.00;98.40;;;;;;5062120;28;19917;-71
2022/10/23 09:02:43;;;;;;;;;;;13.00;98.10;;;;;;5066436;28;20351;-71
2022/10/23 09:05:18;;;;;;;;;;;13.00;98.20;;;;;;5062216;28;19908;-72
2022/10/23 09:07:59;;;;;;;;;;;13.10;98.10;;;;;;5068328;28;19963;-72
2022/10/23 09:10:36;;;;;;;;;;;13.20;97.70;;;;;;5059260;28;19908;-72
2022/10/23 09:13:20;;;;;;;;;;;13.20;97.30;;;;;;5074577;28;19904;-73
2022/10/23 09:15:55;;;;;;;;;;;13.30;97.20;;;;;;5056366;28;19904;-71
2022/10/23 09:18:22;;;;;;;;;;;13.40;97.30;;;;;;5046678;28;19913;-71
2022/10/23 09:20:51;;;;;;;;;;;13.50;97.30;;;;;;5060770;28;19953;-71
2022/10/23 09:23:18;;;;;;;;;;;13.50;97.20;;;;;;5065452;28;20311;-76
2022/10/23 09:25:44;;;;;;;;;;;13.50;96.20;;;;;;5065486;28;19905;-72
2022/10/23 09:28:18;;;;;;;;;;;13.60;96.70;;;;;;5054697;28;19966;-71
2022/10/23 09:30:43;;;;;;;;;;;13.60;96.60;;;;;;5063460;28;19988;-72
2022/10/23 09:33:27;;;;;;;;;;;13.60;96.60;;;;;;5058825;28;20376;-71
2022/10/23 09:35:54;;;;;;;;;;;13.70;96.30;;;;;;5068542;28;19908;-71
2022/10/23 09:38:25;;;;;;;;;;;13.80;96.20;;;;;;5055963;28;19912;-71
2022/10/23 09:40:50;;;;;;;;;;;13.90;95.90;;;;;;5063871;28;19951;-73
2022/10/23 09:43:17;;;;;;;;;;;14.00;95.90;;;;;;5044071;28;20368;-71
2022/10/23 09:45:42;;;;;;;;;;;14.00;95.60;;;;;;5060783;28;19913;-71
2022/10/23 09:48:12;;;;;;;;;;;14.10;95.60;;;;;;5073574;28;19920;-71
2022/10/23 09:50:41;;;;;;;;;;;14.10;94.80;;;;;;5052504;28;19909;-72
2022/10/23 09:53:14;;;;;;;;;;;14.20;95.10;;;;;;5053620;28;19912;-71
2022/10/23 09:55:39;;;;;;;;;;;14.10;94.70;;;;;;5060866;28;19947;-71
2022/10/23 09:58:04;;;;;;;;;;;14.20;94.80;;;;;;5069492;28;19947;-71
2022/10/23 10:00:30;;;;;;;;;;;14.20;94.70;;;;;;5036934;28;19916;-71
2022/10/23 10:02:58;;;;;;;;;;;14.30;94.70;;;;;;5034351;28;19913;-71
2022/10/23 10:05:31;;;;;;;;;;;14.40;94.60;;;;;;5045192;28;19915;-72
2022/10/23 10:08:14;;;;;;;;;;;14.50;94.40;;;;;;5059100;28;19968;-71
2022/10/23 10:10:48;;;;;;;;;;;14.50;94.10;;;;;;5063829;28;20381;-71
2022/10/23 10:13:32;;;;;;;;;;;14.60;93.80;;;;;;5064221;28;19916;-74
2022/10/23 10:16:03;;;;;;;;;;;14.60;93.60;;;;;;5064210;28;20411;-74
2022/10/23 10:18:38;;;;;;;;;;;14.70;93.50;;;;;;5056698;28;19909;-72
2022/10/23 10:21:22;;;;;;;;;;;14.80;93.70;;;;;;5067174;28;19908;-73
2022/10/23 10:23:59;;;;;;;;;;;15.00;93.30;;;;;;5058935;28;19909;-71
2022/10/23 10:26:29;;;;;;;;;;;15.10;93.20;;;;;;5065840;28;20323;-72
2022/10/23 10:29:22;;;;;;;;;;;15.10;92.70;;;;;;5060430;28;19959;-72
2022/10/23 10:32:02;;;;;;;;;;;15.10;91.90;;;;;;5056846;28;19920;-72
2022/10/23 10:34:46;;;;;;;;;;;15.30;92.40;;;;;;5049280;28;20371;-73
2022/10/23 10:37:30;;;;;;;;;;;15.50;92.20;;;;;;5053639;28;19905;-73
2022/10/23 10:40:04;;;;;;;;;;;15.50;91.40;;;;;;5045991;28;20011;-72
2022/10/23 10:42:30;;;;;;;;;;;15.70;91.30;;;;;;5051919;28;19904;-72
2022/10/23 10:45:00;;;;;;;;;;;15.80;90.80;;;;;;5056311;28;19909;-72
2022/10/23 10:47:38;;;;;;;;;;;15.90;90.70;;;;;;5037483;28;19955;-72
2022/10/23 10:50:09;;;;;;;;;;;16.20;90.70;;;;;;5043321;28;19925;-73
2022/10/23 10:52:42;;;;;;;;;;;16.40;90.00;;;;;;5050129;28;19908;-76
2022/10/23 10:55:34;;;;;;;;;;;16.50;88.80;;;;;;5047534;28;19943;-73
2022/10/23 10:58:25;;;;;;;;;;;16.60;88.80;;;;;;5067002;28;20340;-72
2022/10/23 11:00:57;;;;;;;;;;;16.60;87.90;;;;;;5016678;28;20322;-72
2022/10/23 11:03:37;;;;;;;;;;;16.50;88.40;;;;;;5050691;28;19916;-72
2022/10/23 11:06:07;;;;;;;;;;;16.30;88.50;;;;;;5042216;28;19908;-73
2022/10/23 11:08:38;;;;;;;;;;;16.30;88.80;;;;;;5070303;28;19923;-73
2022/10/23 11:11:30;;;;;;;;;;;16.40;88.80;;;;;;5066391;28;19905;-73
2022/10/23 11:13:56;;;;;;;;;;;16.40;88.90;;;;;;5029588;28;19920;-74
2022/10/23 11:16:22;;;;;;;;;;;16.30;88.70;;;;;;5034965;28;20019;-77
2022/10/23 11:19:03;;;;;;;;;;;16.40;89.10;;;;;;5047611;28;19918;-72
2022/10/23 11:21:31;;;;;;;;;;;16.50;88.80;;;;;;5067047;28;19904;-72
2022/10/23 11:24:08;;;;;;;;;;;16.50;88.70;;;;;;5053751;28;19948;-73
2022/10/23 11:26:45;;;;;;;;;;;16.50;88.70;;;;;;5035070;28;20007;-73
2022/10/23 11:29:10;;;;;;;;;;;16.60;88.50;;;;;;5048492;28;20364;-73
2022/10/23 11:31:55;;;;;;;;;;;16.60;88.00;;;;;;5052548;28;19927;-74
2022/10/23 11:34:30;;;;;;;;;;;16.80;88.20;;;;;;5052074;28;19913;-73
2022/10/23 11:36:57;;;;;;;;;;;16.90;87.40;;;;;;5064116;28;20371;-72
2022/10/23 11:39:28;;;;;;;;;;;17.00;87.40;;;;;;5061306;28;19995;-73
2022/10/23 11:41:57;;;;;;;;;;;17.00;87.10;;;;;;5060906;28;19947;-72
2022/10/23 11:44:27;;;;;;;;;;;17.00;86.90;;;;;;5052615;28;19909;-73
2022/10/23 11:47:01;;;;;;;;;;;17.00;86.80;;;;;;5053835;28;19912;-72
2022/10/23 11:49:27;;;;;;;;;;;17.10;86.70;;;;;;5051947;28;19917;-73
2022/10/23 11:51:59;;;;;;;;;;;17.00;86.20;;;;;;5058291;28;19935;-73
2022/10/23 11:54:30;;;;;;;;;;;17.20;86.30;;;;;;5057347;28;20344;-72
2022/10/23 11:57:11;;;;;;;;;;;17.20;85.40;;;;;;5057335;28;20371;-73
2022/10/23 11:59:49;;;;;;;;;;;17.50;85.70;;;;;;5071882;28;19912;-74
2022/10/23 12:02:33;;;;;;;;;;;17.70;85.20;;;;;;5067060;28;19944;-77
2022/10/23 12:05:02;;;;;;;;;;;17.70;84.20;;;;;;5054924;28;19909;-73
2022/10/23 12:07:32;;;;;;;;;;;17.80;84.10;;;;;;5052910;28;19944;-73
2022/10/23 12:10:00;;;;;;;;;;;17.50;83.40;;;;;;5074307;28;20345;-73
2022/10/23 12:12:32;;;;;;;;;;;17.50;84.10;;;;;;5074480;28;19958;-73
2022/10/23 12:15:27;;;;;;;;;;;17.60;85.00;;;;;;5064332;28;19909;-73
2022/10/23 12:17:54;;;;;;;;;;;17.60;84.80;;;;;;5044832;28;20283;-72
2022/10/23 12:20:22;;;;;;;;;;;17.50;84.80;;;;;;5056338;28;19905;-73
2022/10/23 12:22:55;;;;;;;;;;;17.50;85.50;;;;;;5056363;28;20352;-73
2022/10/23 12:25:39;;;;;;;;;;;17.50;85.60;;;;;;5071104;28;20387;-72
2022/10/23 12:28:23;;;;;;;;;;;17.60;85.10;;;;;;5068579;28;20346;-73
2022/10/23 12:31:04;;;;;;;;;;;17.60;84.80;;;;;;5054791;28;19917;-73
2022/10/23 12:33:36;;;;;;;;;;;17.70;85.00;;;;;;5018736;28;20387;-73
2022/10/23 12:36:01;;;;;;;;;;;17.70;85.10;;;;;;5030066;28;19940;-75
2022/10/23 12:38:28;;;;;;;;;;;17.60;84.60;;;;;;5024466;28;19955;-73
2022/10/23 12:40:59;;;;;;;;;;;17.80;85.00;;;;;;5044574;28;19928;-73
2022/10/23 12:43:25;;;;;;;;;;;17.50;85.00;;;;;;5041725;28;20353;-72
2022/10/23 12:45:53;;;;;;;;;;;17.30;84.90;;;;;;5043755;28;19915;-73
2022/10/23 12:48:20;;;;;;;;;;;17.40;85.20;;;;;;5045392;28;19970;-73
2022/10/23 12:50:51;;;;;;;;;;;17.40;85.50;;;;;;5055274;28;19947;-72
2022/10/23 12:53:17;;;;;;;;;;;17.40;86.10;;;;;;5017194;28;19909;-73
2022/10/23 12:56:00;;;;;;;;;;;17.50;86.20;;;;;;5032725;28;19916;-73
2022/10/23 12:58:31;;;;;;;;;;;17.50;86.40;;;;;;5047417;28;19912;-74
2022/10/23 13:00:59;;;;;;;;;;;17.40;85.60;;;;;;5030627;28;20363;-73
2022/10/23 13:03:25;;;;;;;;;;;17.30;85.70;;;;;;5028745;28;20272;-73
2022/10/23 13:05:51;;;;;;;;;;;17.30;85.70;;;;;;5031428;28;20016;-72
2022/10/23 13:08:18;;;;;;;;;;;17.20;85.80;;;;;;5034876;28;20380;-73
2022/10/23 13:10:43;;;;;;;;;;;17.10;86.20;;;;;;5036101;28;19999;-72
2022/10/23 13:13:10;;;;;;;;;;;17.10;86.30;;;;;;5027974;28;19951;-72
2022/10/23 13:15:45;;;;;;;;;;;17.20;86.70;;;;;;5028272;28;19905;-75
2022/10/23 13:18:15;;;;;;;;;;;17.20;86.00;;;;;;5015780;28;19924;-73
2022/10/23 13:20:43;;;;;;;;;;;17.40;86.20;;;;;;5020890;28;19952;-75
2022/10/23 13:23:29;;;;;;;;;;;17.50;85.40;;;;;;5045553;28;19935;-73
2022/10/23 13:26:00;;;;;;;;;;;17.50;85.30;;;;;;5030008;28;19909;-73
2022/10/23 13:28:27;;;;;;;;;;;17.70;85.10;;;;;;5032314;28;19924;-73
2022/10/23 13:31:06;;;;;;;;;;;17.80;85.00;;;;;;5030002;28;20299;-73
2022/10/23 13:33:42;;;;;;;;;;;17.80;84.70;;;;;;5057018;28;19920;-75
2022/10/23 13:36:07;;;;;;;;;;;17.70;84.60;;;;;;5053194;28;19913;-72
2022/10/23 13:38:35;;;;;;;;;;;17.70;85.30;;;;;;5057032;28;20250;-73
2022/10/23 13:41:01;;;;;;;;;;;17.50;84.70;;;;;;5057855;28;19909;-72
2022/10/23 13:43:29;;;;;;;;;;;17.50;85.20;;;;;;5058259;28;20361;-73
2022/10/23 13:45:55;;;;;;;;;;;17.50;85.20;;;;;;5063078;28;19927;-75
2022/10/23 13:48:20;;;;;;;;;;;17.50;85.60;;;;;;5063186;28;19920;-72
2022/10/23 13:50:46;;;;;;;;;;;17.40;85.80;;;;;;5053165;28;19909;-73
2022/10/23 13:53:12;;;;;;;;;;;17.40;86.20;;;;;;5062550;28;19940;-76
2022/10/23 13:55:39;;;;;;;;;;;17.30;86.20;;;;;;5061752;28;19912;-73
2022/10/23 13:58:04;;;;;;;;;;;17.30;86.90;;;;;;5055862;28;20303;-73
2022/10/23 14:00:30;;;;;;;;;;;17.20;87.00;;;;;;5063413;28;20479;-73
2022/10/23 14:02:55;;;;;;;;;;;17.00;87.50;;;;;;5061547;28;20377;-73
2022/10/23 14:05:21;;;;;;;;;;;17.00;87.80;;;;;;5059978;28;19918;-72
2022/10/23 14:07:46;;;;;;;;;;;17.00;87.90;;;;;;5065331;28;19916;-78
2022/10/23 14:10:12;;;;;;;;;;;17.00;88.70;;;;;;5059291;28;20349;-75
2022/10/23 14:12:41;;;;;;;;;;;16.90;88.70;;;;;;5058377;28;19913;-72
2022/10/23 14:15:06;;;;;;;;;;;16.80;89.20;;;;;;5053714;28;19991;-73
2022/10/23 14:17:33;;;;;;;;;;;16.70;89.20;;;;;;5053801;28;20046;-73
2022/10/23 14:19:58;;;;;;;;;;;16.70;89.70;;;;;;5065083;28;19920;-72
2022/10/23 14:22:23;;;;;;;;;;;16.60;89.80;;;;;;5070559;28;19908;-72
2022/10/23 14:24:49;;;;;;;;;;;16.60;89.80;;;;;;5060752;28;20407;-72
2022/10/23 14:27:14;;;;;;;;;;;16.50;89.90;;;;;;5060783;28;20007;-76
2022/10/23 14:29:40;;;;;;;;;;;16.50;90.20;;;;;;5056552;28;19979;-73
2022/10/23 14:32:06;;;;;;;;;;;16.40;90.30;;;;;;5055973;28;20010;-73